createdAt,value
2019-05-20T00:02:06.302Z,99.90
2019-05-20T00:04:38.091Z,99.90
2019-05-20T00:07:09.908Z,99.90
2019-05-20T00:09:41.581Z,99.90
2019-05-20T00:12:13.308Z,99.90
2019-05-20T00:14:45.075Z,99.90
2019-05-20T00:17:16.919Z,99.90
2019-05-20T00:19:50.743Z,99.90
2019-05-20T00:22:22.126Z,99.90
2019-05-20T00:24:53.879Z,99.90
2019-05-20T00:27:25.593Z,99.90
2019-05-20T00:29:57.194Z,99.90
2019-05-20T00:32:40.678Z,99.90
2019-05-20T00:35:02.514Z,99.90
2019-05-20T00:37:34.357Z,99.90
2019-05-20T00:40:06.683Z,99.90
2019-05-20T00:42:38.324Z,99.90
2019-05-20T00:45:09.963Z,99.90
2019-05-20T00:47:41.695Z,99.90
2019-05-20T00:50:13.647Z,99.90
2019-05-20T00:52:45.318Z,99.90
2019-05-20T00:55:25.774Z,99.90
2019-05-20T00:57:57.382Z,99.90
2019-05-20T01:00:29.576Z,99.90
2019-05-20T01:03:01.332Z,99.90
2019-05-20T01:05:33.018Z,99.90
2019-05-20T01:08:04.703Z,99.90
2019-05-20T01:10:36.463Z,99.90
2019-05-20T01:13:08.149Z,99.90
2019-05-20T01:15:40.077Z,99.90
2019-05-20T01:18:11.941Z,99.90
2019-05-20T01:20:43.789Z,99.90
2019-05-20T01:23:15.527Z,99.90
2019-05-20T01:25:47.290Z,99.90
2019-05-20T01:28:19.202Z,99.90
2019-05-20T01:30:50.872Z,99.90
2019-05-20T01:33:22.582Z,99.90
2019-05-20T01:35:54.410Z,99.90
2019-05-20T01:38:26.593Z,99.90
2019-05-20T01:40:58.382Z,99.90
2019-05-20T01:43:30.220Z,99.90
2019-05-20T01:46:01.875Z,99.90
2019-05-20T01:48:33.654Z,99.90
2019-05-20T01:51:05.389Z,99.90
2019-05-20T01:53:37.032Z,99.90
2019-05-20T01:56:08.865Z,99.90
2019-05-20T01:58:40.587Z,99.90
2019-05-20T02:01:12.761Z,99.90
2019-05-20T02:03:44.511Z,99.90
2019-05-20T02:06:16.271Z,99.90
2019-05-20T02:08:47.929Z,99.90
2019-05-20T02:11:19.623Z,99.90
2019-05-20T02:13:59.302Z,99.90
2019-05-20T02:16:31.128Z,99.90
2019-05-20T02:19:02.885Z,99.90
2019-05-20T02:21:34.885Z,99.90
2019-05-20T02:24:06.676Z,99.90
2019-05-20T02:26:38.397Z,99.90
2019-05-20T02:29:10.059Z,99.90
2019-05-20T02:31:41.706Z,99.90
2019-05-20T02:34:13.570Z,99.90
2019-05-20T02:36:45.565Z,99.90
2019-05-20T02:39:17.433Z,99.90
2019-05-20T02:41:49.256Z,99.90
2019-05-20T02:44:21.013Z,99.90
2019-05-20T02:46:52.738Z,99.90
2019-05-20T02:49:24.608Z,99.90
2019-05-20T02:51:56.326Z,99.90
2019-05-20T02:54:30.068Z,99.90
2019-05-20T02:57:01.901Z,99.90
2019-05-20T02:59:33.692Z,99.90
2019-05-20T03:02:05.146Z,99.90
2019-05-20T03:04:36.971Z,99.90
2019-05-20T03:07:09.171Z,99.90
2019-05-20T03:09:40.987Z,99.90
2019-05-20T03:12:11.176Z,99.90
2019-05-20T03:14:42.969Z,99.90
2019-05-20T03:17:14.774Z,99.90
2019-05-20T03:19:46.663Z,99.90
2019-05-20T03:22:18.609Z,99.90
2019-05-20T03:24:50.588Z,99.90
2019-05-20T03:27:22.517Z,99.90
2019-05-20T03:29:54.345Z,99.90
2019-05-20T03:32:26.081Z,99.90
2019-05-20T03:35:00.699Z,99.90
2019-05-20T03:37:31.715Z,99.90
2019-05-20T03:40:04.096Z,99.90
2019-05-20T03:42:35.657Z,99.90
2019-05-20T03:45:07.696Z,99.90
2019-05-20T03:47:39.563Z,99.90
2019-05-20T03:50:11.386Z,99.90
2019-05-20T03:52:43.119Z,99.90
2019-05-20T03:55:43.229Z,99.90
2019-05-20T03:58:15.111Z,99.90
2019-05-20T04:00:47.823Z,99.90
2019-05-20T04:03:19.761Z,99.90
2019-05-20T04:05:51.688Z,99.90
2019-05-20T04:08:23.485Z,99.90
2019-05-20T04:10:55.140Z,99.90
2019-05-20T04:13:26.994Z,99.90
2019-05-20T04:15:58.911Z,99.90
2019-05-20T04:18:30.877Z,99.90
2019-05-20T04:21:02.532Z,99.90
2019-05-20T04:23:34.554Z,99.90
2019-05-20T04:26:06.713Z,99.90
2019-05-20T04:28:38.488Z,99.90
2019-05-20T04:31:10.342Z,99.90
2019-05-20T04:33:42.353Z,99.90
2019-05-20T04:36:14.244Z,99.90
2019-05-20T04:38:46.090Z,99.90
2019-05-20T04:41:18.445Z,99.90
2019-05-20T04:43:50.555Z,99.90
2019-05-20T04:46:22.574Z,99.90
2019-05-20T04:48:54.168Z,99.90
2019-05-20T04:51:26.312Z,99.90
2019-05-20T04:53:58.283Z,99.90
2019-05-20T04:56:30.257Z,99.90
2019-05-20T04:59:02.048Z,99.90
2019-05-20T05:01:34.317Z,99.90
2019-05-20T05:04:06.381Z,99.90
2019-05-20T05:06:38.265Z,99.90
2019-05-20T05:09:09.985Z,99.90
2019-05-20T05:11:42.010Z,99.90
2019-05-20T05:14:13.962Z,99.70
2019-05-20T05:16:45.957Z,99.30
2019-05-20T05:19:17.868Z,99.10
2019-05-20T05:21:50.083Z,98.90
2019-05-20T05:24:22.220Z,97.90
2019-05-20T05:26:54.266Z,97.50
2019-05-20T05:29:26.366Z,97.10
2019-05-20T05:31:58.431Z,96.70
2019-05-20T05:34:30.542Z,96.20
2019-05-20T05:37:02.357Z,95.70
2019-05-20T05:39:34.307Z,94.90
2019-05-20T05:42:06.731Z,94.70
2019-05-20T05:44:38.821Z,94.10
2019-05-20T05:47:10.642Z,92.60
2019-05-20T05:49:42.426Z,89.10
2019-05-20T05:52:14.356Z,84.60
2019-05-20T05:54:46.670Z,81.00
2019-05-20T05:57:18.774Z,77.40
2019-05-20T05:59:54.178Z,73.90
2019-05-20T06:02:26.143Z,71.50
2019-05-20T06:04:58.459Z,70.50
2019-05-20T06:07:31.641Z,71.30
2019-05-20T06:10:03.834Z,70.50
2019-05-20T06:12:35.949Z,69.10
2019-05-20T06:15:08.580Z,68.00
2019-05-20T06:17:41.007Z,67.80
2019-05-20T06:20:13.797Z,68.40
2019-05-20T06:22:45.868Z,69.00
2019-05-20T06:25:18.146Z,70.10
2019-05-20T06:27:50.002Z,69.20
2019-05-20T06:30:23.759Z,69.50
2019-05-20T06:32:56.850Z,69.60
2019-05-20T06:35:29.060Z,69.40
2019-05-20T06:38:02.945Z,67.60
2019-05-20T06:40:35.004Z,66.60
2019-05-20T06:43:07.061Z,67.10
2019-05-20T06:45:39.489Z,66.20
2019-05-20T06:48:11.900Z,64.40
2019-05-20T06:50:43.978Z,62.00
2019-05-20T06:53:16.269Z,59.20
2019-05-20T06:55:48.681Z,58.00
2019-05-20T06:58:20.653Z,56.80
2019-05-20T07:00:52.824Z,56.20
2019-05-20T07:03:25.028Z,55.50
2019-05-20T07:05:57.179Z,55.40
2019-05-20T07:08:29.660Z,56.70
2019-05-20T07:11:01.819Z,58.10
2019-05-20T07:13:33.907Z,59.00
2019-05-20T07:16:06.575Z,59.70
2019-05-20T07:18:38.640Z,59.80
2019-05-20T07:21:10.765Z,60.10
2019-05-20T07:23:43.398Z,59.70
2019-05-20T07:26:15.759Z,60.00
2019-05-20T07:28:48.089Z,62.40
2019-05-20T07:31:20.191Z,63.30
2019-05-20T07:33:52.223Z,65.30
2019-05-20T07:36:24.299Z,67.30
2019-05-20T07:38:56.382Z,68.80
2019-05-20T07:41:29.268Z,70.10
2019-05-20T07:44:01.297Z,69.00
2019-05-20T07:46:33.647Z,66.10
2019-05-20T07:49:07.713Z,65.20
2019-05-20T07:51:40.872Z,66.00
2019-05-20T07:54:13.890Z,66.90
2019-05-20T07:56:47.986Z,66.60
2019-05-20T07:59:23.369Z,65.10
2019-05-20T08:01:55.558Z,63.00
2019-05-20T08:04:27.639Z,59.90
2019-05-20T08:06:59.912Z,57.00
2019-05-20T08:09:32.485Z,54.10
2019-05-20T08:12:04.617Z,50.40
2019-05-20T08:14:37.887Z,47.70
2019-05-20T08:17:10.239Z,47.90
2019-05-20T08:19:42.333Z,47.40
2019-05-20T08:22:14.485Z,46.90
2019-05-20T08:24:46.730Z,46.40
2019-05-20T08:27:18.759Z,46.50
2019-05-20T08:29:51.323Z,45.70
2019-05-20T08:32:23.349Z,45.30
2019-05-20T08:34:55.606Z,44.50
2019-05-20T08:37:43.703Z,45.00
2019-05-20T08:40:01.971Z,45.90
2019-05-20T08:42:34.328Z,45.70
2019-05-20T08:45:06.698Z,46.10
2019-05-20T08:47:38.779Z,46.30
2019-05-20T08:50:15.894Z,46.50
2019-05-20T08:52:45.215Z,46.10
2019-05-20T08:55:17.258Z,47.20
2019-05-20T08:57:49.489Z,47.80
2019-05-20T09:00:24.187Z,47.50
2019-05-20T09:02:56.666Z,47.60
2019-05-20T09:05:29.463Z,46.80
2019-05-20T09:08:03.593Z,47.30
2019-05-20T09:10:35.138Z,46.50
2019-05-20T09:13:07.973Z,45.80
2019-05-20T09:15:40.140Z,45.20
2019-05-20T09:18:12.094Z,45.10
2019-05-20T09:20:44.021Z,45.10
2019-05-20T09:23:16.456Z,45.10
2019-05-20T09:25:48.270Z,44.50
2019-05-20T09:28:20.496Z,43.40
2019-05-20T09:30:53.015Z,43.40
2019-05-20T09:33:25.803Z,44.30
2019-05-20T09:35:57.895Z,45.70
2019-05-20T09:38:30.405Z,46.50
2019-05-20T09:41:02.381Z,46.70
2019-05-20T09:43:34.363Z,47.10
2019-05-20T09:46:08.384Z,46.80
2019-05-20T09:48:40.656Z,46.70
2019-05-20T09:51:13.001Z,47.00
2019-05-20T09:53:45.360Z,47.70
2019-05-20T09:56:17.844Z,48.70
2019-05-20T09:58:49.881Z,49.80
2019-05-20T10:01:21.942Z,51.10
2019-05-20T10:03:56.203Z,52.70
2019-05-20T10:06:28.399Z,54.10
2019-05-20T10:09:01.025Z,54.80
2019-05-20T10:11:33.128Z,55.30
2019-05-20T10:14:05.427Z,55.70
2019-05-20T10:16:38.215Z,55.10
2019-05-20T10:19:10.617Z,54.40
2019-05-20T10:21:44.167Z,54.60
2019-05-20T10:24:16.478Z,55.60
2019-05-20T10:26:48.190Z,56.10
2019-05-20T10:29:20.256Z,56.60
2019-05-20T10:31:52.260Z,56.90
2019-05-20T10:34:24.473Z,57.20
2019-05-20T10:36:56.545Z,57.50
2019-05-20T10:39:28.543Z,57.60
2019-05-20T10:42:00.595Z,57.90
2019-05-20T10:44:32.885Z,58.20
2019-05-20T10:47:04.841Z,58.10
2019-05-20T10:49:37.062Z,57.60
2019-05-20T10:52:09.523Z,57.20
2019-05-20T10:54:44.323Z,57.30
2019-05-20T10:57:16.449Z,57.70
2019-05-20T10:59:48.637Z,58.10
2019-05-20T11:02:20.524Z,58.60
2019-05-20T11:04:52.951Z,58.50
2019-05-20T11:07:24.869Z,58.00
2019-05-20T11:09:56.875Z,57.40
2019-05-20T11:12:29.256Z,57.40
2019-05-20T11:15:03.178Z,58.20
2019-05-20T11:17:35.695Z,58.40
2019-05-20T11:20:08.899Z,58.70
2019-05-20T11:22:41.127Z,58.70
2019-05-20T11:25:13.144Z,58.60
2019-05-20T11:27:46.058Z,58.50
2019-05-20T11:30:19.011Z,58.30
2019-05-20T11:32:51.854Z,58.60
2019-05-20T11:35:23.943Z,58.90
2019-05-20T11:37:55.967Z,59.30
2019-05-20T11:40:28.056Z,60.40
2019-05-20T11:43:00.698Z,61.60
2019-05-20T11:45:34.172Z,62.90
2019-05-20T11:48:06.380Z,65.60
2019-05-20T11:50:38.744Z,66.70
2019-05-20T11:53:11.247Z,68.40
2019-05-20T11:55:43.741Z,70.30
2019-05-20T11:58:16.679Z,72.00
2019-05-20T12:00:49.350Z,73.10
2019-05-20T12:03:22.486Z,73.90
2019-05-20T12:05:54.906Z,74.60
2019-05-20T12:08:27.132Z,75.30
2019-05-20T12:10:59.093Z,75.40
2019-05-20T12:13:31.141Z,75.70
2019-05-20T12:16:03.068Z,75.90
2019-05-20T12:18:35.150Z,76.40
2019-05-20T12:21:07.105Z,77.70
2019-05-20T12:23:39.083Z,78.30
2019-05-20T12:26:11.139Z,79.00
2019-05-20T12:28:43.480Z,80.80
2019-05-20T12:31:14.874Z,82.50
2019-05-20T12:33:47.880Z,82.70
2019-05-20T12:36:20.177Z,83.80
2019-05-20T12:38:52.055Z,84.40
2019-05-20T12:41:24.356Z,85.90
2019-05-20T12:44:11.099Z,86.50
2019-05-20T12:46:30.213Z,88.50
2019-05-20T12:49:02.417Z,90.10
2019-05-20T12:51:34.391Z,90.90
2019-05-20T12:54:06.758Z,91.30
2019-05-20T12:56:38.845Z,92.50
2019-05-20T12:59:11.329Z,93.40
2019-05-20T13:01:44.391Z,94.00
2019-05-20T13:04:16.704Z,94.70
2019-05-20T13:06:48.679Z,95.20
2019-05-20T13:09:21.087Z,95.60
2019-05-20T13:11:52.848Z,95.80
2019-05-20T13:14:25.008Z,96.20
2019-05-20T13:16:57.418Z,96.30
2019-05-20T13:19:29.008Z,96.20
2019-05-20T13:22:01.185Z,96.00
2019-05-20T13:24:33.366Z,95.70
2019-05-20T13:27:05.719Z,95.70
2019-05-20T13:29:37.784Z,95.50
2019-05-20T13:32:09.964Z,95.40
2019-05-20T13:34:42.322Z,95.20
2019-05-20T13:37:15.013Z,94.40
2019-05-20T13:39:47.019Z,93.80
2019-05-20T13:42:19.143Z,93.30
2019-05-20T13:44:54.741Z,92.60
2019-05-20T13:47:27.006Z,92.10
2019-05-20T13:49:59.845Z,91.50
2019-05-20T13:52:32.245Z,90.80
2019-05-20T13:55:04.431Z,90.70
2019-05-20T13:57:36.956Z,90.10
2019-05-20T14:00:10.252Z,89.00
2019-05-20T14:02:41.834Z,89.10
2019-05-20T14:05:14.432Z,87.70
2019-05-20T14:07:46.251Z,85.70
2019-05-20T14:10:19.251Z,83.90
2019-05-20T14:12:52.458Z,83.60
2019-05-20T14:15:24.692Z,84.10
2019-05-20T14:17:55.134Z,84.20
2019-05-20T14:20:27.213Z,83.80
2019-05-20T14:22:59.162Z,83.60
2019-05-20T14:25:31.391Z,83.20
2019-05-20T14:28:03.753Z,82.90
2019-05-20T14:30:35.980Z,82.00
2019-05-20T14:33:12.237Z,82.20
2019-05-20T14:35:44.381Z,82.00
2019-05-20T14:38:16.671Z,82.00
2019-05-20T14:40:48.699Z,82.00
2019-05-20T14:43:20.501Z,82.00
2019-05-20T14:45:52.677Z,81.70
2019-05-20T14:48:25.337Z,79.60
2019-05-20T14:50:57.457Z,77.70
2019-05-20T14:53:29.874Z,77.00
2019-05-20T14:56:01.498Z,76.10
2019-05-20T14:58:33.643Z,74.90
2019-05-20T15:01:06.345Z,74.40
2019-05-20T15:03:38.614Z,74.00
2019-05-20T15:06:10.661Z,73.50
2019-05-20T15:08:43.211Z,72.90
2019-05-20T15:11:15.439Z,72.40
2019-05-20T15:13:47.334Z,72.10
2019-05-20T15:16:20.241Z,71.70
2019-05-20T15:18:52.407Z,71.20
2019-05-20T15:21:28.934Z,72.00
2019-05-20T15:23:58.737Z,71.10
2019-05-20T15:26:30.803Z,70.80
2019-05-20T15:29:04.016Z,70.80
2019-05-20T15:31:36.797Z,70.80
2019-05-20T15:34:09.237Z,70.30
2019-05-20T15:36:41.340Z,70.50
2019-05-20T15:39:13.660Z,70.60
2019-05-20T15:41:46.343Z,70.00
2019-05-20T15:44:18.639Z,69.50
2019-05-20T15:46:50.713Z,69.10
2019-05-20T15:49:22.799Z,68.90
2019-05-20T15:51:54.923Z,69.30
2019-05-20T15:54:27.260Z,68.80
2019-05-20T15:56:59.566Z,69.30
2019-05-20T15:59:44.965Z,69.50
2019-05-20T16:02:04.877Z,69.70
2019-05-20T16:04:37.254Z,71.10
2019-05-20T16:07:09.887Z,70.50
2019-05-20T16:09:42.086Z,70.90
2019-05-20T16:12:14.723Z,71.40
2019-05-20T16:14:46.792Z,71.60
2019-05-20T16:17:19.011Z,71.70
2019-05-20T16:19:51.037Z,71.60
2019-05-20T16:22:22.844Z,72.30
2019-05-20T16:24:55.023Z,73.50
2019-05-20T16:27:27.104Z,75.50
2019-05-20T16:30:06.120Z,77.40
2019-05-20T16:32:32.686Z,79.70
2019-05-20T16:35:04.949Z,82.60
2019-05-20T16:37:36.879Z,84.80
2019-05-20T16:40:09.996Z,88.00
2019-05-20T16:42:41.983Z,90.10
2019-05-20T16:45:14.526Z,91.00
2019-05-20T16:47:46.688Z,91.50
2019-05-20T16:50:18.853Z,92.20
2019-05-20T16:52:51.086Z,92.70
2019-05-20T16:55:23.480Z,93.20
2019-05-20T16:57:55.511Z,94.00
2019-05-20T17:00:31.884Z,95.40
2019-05-20T17:03:01.053Z,97.30
2019-05-20T17:05:33.301Z,99.20
2019-05-20T17:08:05.315Z,99.90
2019-05-20T17:10:37.298Z,99.90
2019-05-20T17:13:09.610Z,99.90
2019-05-20T17:15:41.847Z,99.90
2019-05-20T17:18:13.885Z,99.90
2019-05-20T17:20:46.548Z,99.90
2019-05-20T17:23:18.741Z,99.90
2019-05-20T17:25:51.112Z,99.90
2019-05-20T17:28:22.862Z,99.90
2019-05-20T17:30:55.027Z,99.90
2019-05-20T17:33:26.962Z,99.90
2019-05-20T17:36:06.696Z,99.90
2019-05-20T17:38:38.580Z,99.90
2019-05-20T17:41:11.068Z,99.90
2019-05-20T17:43:43.192Z,99.90
2019-05-20T17:46:15.684Z,99.90
2019-05-20T17:48:47.573Z,99.90
2019-05-20T17:51:19.765Z,99.90
2019-05-20T17:53:51.930Z,99.90
2019-05-20T17:56:23.983Z,99.90
2019-05-20T17:58:55.914Z,99.90
2019-05-20T18:01:27.986Z,99.90
2019-05-20T18:04:00.097Z,99.90
2019-05-20T18:06:32.263Z,99.90
2019-05-20T18:09:06.786Z,99.90
2019-05-20T18:11:39.152Z,99.90
2019-05-20T18:14:11.050Z,99.90
2019-05-20T18:16:43.354Z,99.90
2019-05-20T18:19:15.622Z,99.90
2019-05-20T18:21:47.940Z,99.90
2019-05-20T18:24:20.421Z,99.90
2019-05-20T18:26:52.398Z,99.90
2019-05-20T18:29:24.323Z,99.90
2019-05-20T18:31:56.482Z,99.90
2019-05-20T18:34:28.471Z,99.90
2019-05-20T18:37:00.469Z,99.90
2019-05-20T18:39:32.542Z,99.90
2019-05-20T18:42:04.634Z,99.90
2019-05-20T18:44:36.527Z,99.90
2019-05-20T18:47:08.353Z,99.90
2019-05-20T18:49:41.294Z,99.90
2019-05-20T18:52:13.313Z,99.90
2019-05-20T18:54:45.398Z,99.90
2019-05-20T18:57:17.806Z,99.90
2019-05-20T18:59:50.005Z,99.90
2019-05-20T19:02:21.944Z,99.90
2019-05-20T19:04:53.556Z,99.90
2019-05-20T19:07:25.489Z,99.90
2019-05-20T19:09:57.495Z,99.90
2019-05-20T19:12:29.675Z,99.90
2019-05-20T19:15:01.929Z,99.90
2019-05-20T19:17:33.929Z,99.90
2019-05-20T19:20:06.984Z,99.90
2019-05-20T19:22:39.042Z,99.90
2019-05-20T19:25:11.294Z,99.90
2019-05-20T19:27:43.700Z,99.90
2019-05-20T19:30:16.227Z,99.90
2019-05-20T19:32:48.618Z,99.90
2019-05-20T19:35:20.764Z,99.90
2019-05-20T19:37:52.795Z,99.90
2019-05-20T19:40:24.662Z,99.90
2019-05-20T19:42:56.527Z,99.90
2019-05-20T19:45:28.714Z,99.90
2019-05-20T19:48:02.132Z,99.90
2019-05-20T19:50:34.171Z,99.90
2019-05-20T19:53:06.871Z,99.90
2019-05-20T19:55:38.954Z,99.90
2019-05-20T19:58:11.151Z,99.90
2019-05-20T20:00:42.987Z,99.90
2019-05-20T20:03:15.131Z,99.90
2019-05-20T20:05:47.139Z,99.90
2019-05-20T20:08:19.487Z,99.90
2019-05-20T20:10:51.659Z,99.90
2019-05-20T20:13:23.552Z,99.90
2019-05-20T20:15:56.473Z,99.90
2019-05-20T20:18:28.293Z,99.90
2019-05-20T20:20:59.978Z,99.90
2019-05-20T20:23:31.832Z,99.90
2019-05-20T20:26:03.774Z,99.90
2019-05-20T20:28:35.508Z,99.90
2019-05-20T20:31:10.443Z,99.90
2019-05-20T20:33:40.882Z,99.90
2019-05-20T20:36:12.879Z,99.90
2019-05-20T20:38:44.910Z,99.90
2019-05-20T20:41:17.153Z,99.90
2019-05-20T20:43:49.016Z,99.90
2019-05-20T20:46:21.126Z,99.90
2019-05-20T20:48:53.417Z,99.90
2019-05-20T20:51:25.357Z,99.90
2019-05-20T20:53:57.051Z,99.90
2019-05-20T20:56:29.022Z,99.90
2019-05-20T20:59:01.407Z,99.90
2019-05-20T21:01:33.457Z,99.90
2019-05-20T21:04:05.406Z,99.90
2019-05-20T21:06:37.184Z,99.90
2019-05-20T21:09:09.179Z,99.90
2019-05-20T21:11:41.041Z,99.90
2019-05-20T21:14:13.433Z,99.90
2019-05-20T21:16:45.171Z,99.90
2019-05-20T21:19:17.224Z,99.90
2019-05-20T21:21:48.594Z,99.90
2019-05-20T21:24:20.543Z,99.90
2019-05-20T21:26:52.512Z,99.90
2019-05-20T21:29:24.362Z,99.90
2019-05-20T21:31:56.176Z,99.90
2019-05-20T21:34:27.997Z,99.90
2019-05-20T21:36:59.858Z,99.90
2019-05-20T21:39:31.792Z,99.90
2019-05-20T21:42:03.977Z,99.90
2019-05-20T21:44:35.989Z,99.90
2019-05-20T21:47:07.778Z,99.90
2019-05-20T21:49:39.692Z,99.90
2019-05-20T21:52:11.700Z,99.90
2019-05-20T21:54:43.350Z,99.90
2019-05-20T21:57:14.651Z,99.90
2019-05-20T21:59:46.761Z,99.90
2019-05-20T22:02:18.402Z,99.90
2019-05-20T22:04:50.549Z,99.90
2019-05-20T22:07:22.420Z,99.90
2019-05-20T22:09:54.378Z,99.90
2019-05-20T22:12:26.239Z,99.90
2019-05-20T22:14:57.912Z,99.90
2019-05-20T22:17:29.618Z,99.90
2019-05-20T22:20:01.310Z,99.90
2019-05-20T22:22:45.636Z,99.90
2019-05-20T22:25:17.588Z,99.90
2019-05-20T22:27:49.490Z,99.90
2019-05-20T22:30:21.287Z,99.90
2019-05-20T22:32:52.872Z,99.90
2019-05-20T22:35:24.640Z,99.90
2019-05-20T22:37:56.546Z,99.90
2019-05-20T22:40:28.282Z,99.90
2019-05-20T22:43:00.308Z,99.90
2019-05-20T22:45:32.098Z,99.90
2019-05-20T22:48:03.934Z,99.90
2019-05-20T22:50:35.988Z,99.90
2019-05-20T22:53:07.833Z,99.90
2019-05-20T22:55:39.759Z,99.90
2019-05-20T22:58:11.444Z,99.90
2019-05-20T23:00:44.340Z,99.90
2019-05-20T23:03:16.512Z,99.90
2019-05-20T23:05:48.452Z,99.90
2019-05-20T23:08:20.220Z,99.90
2019-05-20T23:10:52.228Z,99.90
2019-05-20T23:13:23.973Z,99.90
2019-05-20T23:15:55.947Z,99.90
2019-05-20T23:18:27.539Z,99.90
2019-05-20T23:20:59.576Z,99.90
2019-05-20T23:23:31.269Z,99.90
2019-05-20T23:26:03.020Z,99.90
2019-05-20T23:28:34.707Z,99.90
2019-05-20T23:31:06.868Z,99.90
2019-05-20T23:33:38.927Z,99.90
2019-05-20T23:36:10.659Z,99.90
2019-05-20T23:38:42.612Z,99.90
2019-05-20T23:41:14.314Z,99.90
2019-05-20T23:43:46.030Z,99.90
2019-05-20T23:46:17.996Z,99.90
2019-05-20T23:48:49.645Z,99.90
2019-05-20T23:51:21.412Z,99.90
2019-05-20T23:53:53.280Z,99.90
2019-05-20T23:56:25.025Z,99.90
2019-05-20T23:58:56.704Z,99.90
